Time;durP1;ratioP1;P1;durP2;ratioP2;P2;SDS_P1;SDS_P2;PMS_P1;PMS_P2;Temp;Humidity;BMP_temperature;BMP_pressure;BME280_temperature;BME280_humidity;BME280_pressure;Samples;Min_cycle;Max_cycle;Signal;HPM_P1;HPM_P2
2023/05/18 00:01:42;;;;;;;4.43;1.90;;;8.10;69.90;;;;;;5033495;28;20342;-45
2023/05/18 00:04:10;;;;;;;9.32;2.85;;;8.10;70.00;;;;;;5034208;28;20037;-45
2023/05/18 00:06:37;;;;;;;11.40;1.98;;;8.00;69.10;;;;;;5051841;28;20029;-45
2023/05/18 00:09:04;;;;;;;6.88;2.58;;;8.00;69.40;;;;;;5044091;28;20028;-45
2023/05/18 00:11:30;;;;;;;10.77;1.92;;;8.00;69.80;;;;;;5047472;28;20484;-45
2023/05/18 00:13:57;;;;;;;6.57;2.50;;;8.00;70.50;;;;;;5045531;28;20030;-46
2023/05/18 00:16:25;;;;;;;6.22;2.40;;;8.00;69.40;;;;;;5034097;28;20056;-45
2023/05/18 00:18:53;;;;;;;10.40;2.55;;;8.00;70.50;;;;;;5045186;28;20110;-45
2023/05/18 00:21:22;;;;;;;6.07;2.28;;;8.10;70.80;;;;;;5042083;28;20040;-47
2023/05/18 00:23:49;;;;;;;7.35;2.00;;;8.10;70.50;;;;;;5041451;28;20090;-44
2023/05/18 00:26:14;;;;;;;5.88;2.60;;;8.00;69.50;;;;;;5050993;28;20382;-45
2023/05/18 00:28:45;;;;;;;6.72;1.90;;;8.10;69.60;;;;;;5034298;28;20100;-46
2023/05/18 00:31:15;;;;;;;7.55;2.00;;;8.00;70.60;;;;;;5053014;28;20041;-46
2023/05/18 00:33:44;;;;;;;10.32;2.40;;;8.10;70.90;;;;;;5040099;28;20029;-48
2023/05/18 00:36:10;;;;;;;7.80;2.15;;;8.10;71.40;;;;;;5052493;28;20033;-52
2023/05/18 00:38:37;;;;;;;4.60;1.67;;;8.10;71.70;;;;;;5032194;28;20029;-47
2023/05/18 00:41:08;;;;;;;5.90;2.20;;;8.10;72.10;;;;;;5043280;28;20404;-45
2023/05/18 00:43:39;;;;;;;7.22;2.10;;;8.00;72.00;;;;;;5052640;28;20339;-46
2023/05/18 00:46:08;;;;;;;5.45;1.48;;;8.00;72.30;;;;;;5051019;28;20029;-46
2023/05/18 00:48:35;;;;;;;8.75;2.10;;;8.00;71.40;;;;;;5049682;28;20029;-45
2023/05/18 00:51:07;;;;;;;10.40;2.50;;;8.00;70.90;;;;;;5051853;28;20025;-46
2023/05/18 00:53:35;;;;;;;6.63;2.00;;;8.00;70.70;;;;;;5047888;28;20338;-46
2023/05/18 00:56:02;;;;;;;8.10;1.95;;;8.10;70.90;;;;;;5034769;28;20136;-45
2023/05/18 00:58:31;;;;;;;8.98;2.50;;;8.10;71.20;;;;;;5033777;28;20068;-46
2023/05/18 01:00:57;;;;;;;8.75;2.22;;;8.10;71.40;;;;;;5049461;28;20033;-45
2023/05/18 01:03:28;;;;;;;9.85;2.20;;;8.10;70.20;;;;;;5047007;28;20025;-45
2023/05/18 01:05:58;;;;;;;4.90;1.77;;;8.10;70.60;;;;;;5030545;28;20105;-46
2023/05/18 01:08:27;;;;;;;6.53;1.83;;;8.10;71.10;;;;;;5014802;28;20039;-47
2023/05/18 01:11:10;;;;;;;7.00;1.98;;;8.10;71.70;;;;;;5051576;28;20041;-45
2023/05/18 01:14:30;;;;;;;5.35;1.40;;;8.10;72.20;;;;;;5045628;28;20040;-44
2023/05/18 01:17:34;;;;;;;4.85;1.73;;;8.10;72.60;;;;;;5008295;28;20045;-46
2023/05/18 01:20:18;;;;;;;10.30;2.30;;;8.20;72.50;;;;;;5051569;28;20118;-45
2023/05/18 01:23:40;;;;;;;7.15;2.50;;;8.20;72.70;;;;;;5052261;28;20059;-46
2023/05/18 01:26:40;;;;;;;4.45;1.50;;;8.20;73.20;;;;;;5040714;28;20044;-46
2023/05/18 01:29:10;;;;;;;7.88;1.80;;;8.30;73.50;;;;;;5036171;28;20108;-46
2023/05/18 01:31:40;;;;;;;4.63;1.98;;;8.30;73.40;;;;;;5034523;28;20025;-46
2023/05/18 01:34:10;;;;;;;8.75;2.42;;;8.30;73.20;;;;;;5051765;28;20032;-46
2023/05/18 01:36:36;;;;;;;9.02;1.83;;;8.30;73.50;;;;;;5050126;28;20043;-45
2023/05/18 01:39:04;;;;;;;6.95;2.03;;;8.30;73.90;;;;;;5036306;28;20033;-46
2023/05/18 01:41:36;;;;;;;5.85;2.00;;;8.30;74.50;;;;;;5046154;28;20029;-45
2023/05/18 01:44:40;;;;;;;7.95;2.08;;;8.30;73.50;;;;;;5019834;28;20033;-46
2023/05/18 01:47:14;;;;;;;5.00;1.50;;;8.30;73.50;;;;;;5047037;28;20026;-45
2023/05/18 01:49:43;;;;;;;8.43;2.17;;;8.30;74.20;;;;;;5032935;28;20433;-46
2023/05/18 01:52:15;;;;;;;6.95;2.28;;;8.30;74.40;;;;;;5022650;28;20025;-46
2023/05/18 01:54:44;;;;;;;7.32;2.30;;;8.30;74.60;;;;;;5002741;28;20048;-45
2023/05/18 01:57:14;;;;;;;8.70;2.03;;;8.30;75.00;;;;;;5036294;28;20095;-45
2023/05/18 01:59:43;;;;;;;6.50;2.50;;;8.20;75.40;;;;;;5054369;28;20349;-45
2023/05/18 02:02:10;;;;;;;7.65;2.40;;;8.20;75.50;;;;;;5045660;28;20040;-46
2023/05/18 02:04:37;;;;;;;5.43;1.90;;;8.20;75.60;;;;;;5052225;28;20076;-45
2023/05/18 02:07:04;;;;;;;8.13;2.17;;;8.20;75.60;;;;;;5055021;28;20099;-46
2023/05/18 02:09:31;;;;;;;5.40;2.22;;;8.20;75.80;;;;;;5055508;28;20025;-46
2023/05/18 02:12:01;;;;;;;10.05;2.20;;;8.20;76.20;;;;;;5034711;28;20481;-45
2023/05/18 02:14:28;;;;;;;6.40;2.92;;;8.20;76.20;;;;;;5055401;28;20036;-45
2023/05/18 02:16:56;;;;;;;8.10;2.80;;;8.20;76.50;;;;;;5036112;28;21213;-46
2023/05/18 02:19:24;;;;;;;11.52;2.80;;;8.20;76.50;;;;;;5047832;28;20057;-46
2023/05/18 02:21:50;;;;;;;6.50;2.00;;;8.20;76.30;;;;;;5053332;28;20067;-46
2023/05/18 02:24:19;;;;;;;11.30;2.83;;;8.20;76.40;;;;;;5045995;28;20049;-47
2023/05/18 02:26:46;;;;;;;7.15;2.33;;;8.20;76.60;;;;;;5052009;28;20391;-45
2023/05/18 02:29:13;;;;;;;9.50;2.42;;;8.20;77.10;;;;;;5050838;28;20043;-45
2023/05/18 02:31:40;;;;;;;4.97;2.40;;;8.20;77.20;;;;;;5053246;28;20141;-45
2023/05/18 02:34:07;;;;;;;7.68;2.67;;;8.20;77.30;;;;;;5041255;28;20112;-45
2023/05/18 02:36:38;;;;;;;7.22;2.03;;;8.20;77.90;;;;;;5049529;28;20040;-45
2023/05/18 02:39:08;;;;;;;5.28;2.13;;;8.20;77.80;;;;;;5052120;28;20478;-46
2023/05/18 02:41:35;;;;;;;8.20;2.43;;;8.20;77.70;;;;;;5053539;28;20083;-46
2023/05/18 02:44:03;;;;;;;5.55;2.05;;;8.20;77.70;;;;;;5035523;28;20036;-45
2023/05/18 02:46:34;;;;;;;8.25;3.03;;;8.20;77.70;;;;;;5049401;28;20386;-46
2023/05/18 02:49:02;;;;;;;6.78;3.50;;;8.20;77.50;;;;;;5043428;28;20048;-47
2023/05/18 02:51:32;;;;;;;5.63;2.13;;;8.30;77.80;;;;;;5029015;28;20111;-47
2023/05/18 02:53:59;;;;;;;6.20;2.50;;;8.20;77.60;;;;;;5034483;28;20401;-46
2023/05/18 02:56:27;;;;;;;5.13;2.30;;;8.30;77.50;;;;;;5052825;28;20447;-45
2023/05/18 02:58:57;;;;;;;10.18;2.53;;;8.20;76.70;;;;;;5022711;28;20056;-45
2023/05/18 03:01:28;;;;;;;9.52;3.22;;;8.20;77.20;;;;;;5052443;28;20113;-44
2023/05/18 03:03:59;;;;;;;6.63;3.55;;;8.20;77.40;;;;;;5032506;28;20439;-46
2023/05/18 03:06:29;;;;;;;8.32;2.70;;;8.20;77.90;;;;;;5043150;28;20407;-45
2023/05/18 03:08:56;;;;;;;6.93;2.75;;;8.20;77.30;;;;;;5054040;28;20101;-48
2023/05/18 03:11:25;;;;;;;6.63;1.98;;;8.20;76.90;;;;;;5035971;28;20132;-46
2023/05/18 03:13:52;;;;;;;7.10;2.30;;;8.30;76.80;;;;;;5052571;28;20033;-45
2023/05/18 03:16:18;;;;;;;8.93;3.28;;;8.30;76.60;;;;;;5046446;28;20036;-46
2023/05/18 03:18:45;;;;;;;6.90;2.42;;;8.30;76.90;;;;;;5047097;28;20727;-45
2023/05/18 03:21:14;;;;;;;12.75;2.85;;;8.30;77.00;;;;;;5051918;28;20136;-47
2023/05/18 03:23:41;;;;;;;7.40;2.58;;;8.30;76.80;;;;;;5053123;28;20096;-47
2023/05/18 03:26:11;;;;;;;10.55;2.65;;;8.30;76.90;;;;;;5043608;28;20025;-47
2023/05/18 03:28:39;;;;;;;9.80;2.20;;;8.30;76.50;;;;;;5052603;28;20037;-45
2023/05/18 03:31:06;;;;;;;7.80;3.20;;;8.40;76.50;;;;;;5044846;28;20418;-45
2023/05/18 03:33:32;;;;;;;8.68;2.90;;;8.30;76.10;;;;;;5016191;28;20056;-45
2023/05/18 03:36:03;;;;;;;8.40;3.38;;;8.40;76.50;;;;;;5034087;28;20064;-47
2023/05/18 03:38:30;;;;;;;7.32;2.50;;;8.40;76.20;;;;;;5019482;28;20478;-46
2023/05/18 03:40:57;;;;;;;8.50;2.50;;;8.40;76.50;;;;;;5043233;28;20056;-46
2023/05/18 03:43:24;;;;;;;7.70;2.92;;;8.40;76.40;;;;;;5037204;28;20032;-45
2023/05/18 03:45:53;;;;;;;8.05;2.65;;;8.40;76.50;;;;;;5044168;28;20067;-46
2023/05/18 03:48:24;;;;;;;7.40;2.45;;;8.40;76.60;;;;;;5041303;28;20048;-45
2023/05/18 03:50:51;;;;;;;6.32;2.33;;;8.40;76.50;;;;;;5020645;28;20025;-47
2023/05/18 03:53:21;;;;;;;9.05;3.25;;;8.40;76.30;;;;;;5046949;28;20029;-47
2023/05/18 03:55:48;;;;;;;6.22;2.55;;;8.40;76.10;;;;;;5032334;28;20036;-45
2023/05/18 03:58:15;;;;;;;6.70;2.30;;;8.40;76.50;;;;;;5051158;28;20028;-46
2023/05/18 04:00:46;;;;;;;9.77;2.08;;;8.40;76.50;;;;;;5027019;28;20085;-46
2023/05/18 04:03:13;;;;;;;7.38;2.10;;;8.50;76.60;;;;;;5049251;28;20028;-45
2023/05/18 04:05:43;;;;;;;5.13;2.67;;;8.50;76.30;;;;;;5028261;28;20033;-45
2023/05/18 04:08:13;;;;;;;7.15;2.20;;;8.40;75.80;;;;;;5040309;28;20025;-45
2023/05/18 04:10:42;;;;;;;8.35;2.50;;;8.40;75.40;;;;;;5052714;28;20104;-45
2023/05/18 04:13:07;;;;;;;7.60;2.38;;;8.40;75.60;;;;;;5033104;28;20037;-45
2023/05/18 04:15:35;;;;;;;8.80;3.17;;;8.40;75.80;;;;;;5051306;28;20026;-46
2023/05/18 04:18:03;;;;;;;7.32;2.35;;;8.40;75.50;;;;;;5039863;28;20053;-46
2023/05/18 04:20:29;;;;;;;6.38;2.20;;;8.40;75.90;;;;;;5034368;28;20064;-45
2023/05/18 04:22:56;;;;;;;8.20;2.85;;;8.40;76.70;;;;;;5050254;28;20386;-46
2023/05/18 04:25:28;;;;;;;9.85;2.67;;;8.40;76.60;;;;;;5051039;28;20133;-46
2023/05/18 04:27:58;;;;;;;12.13;2.70;;;8.40;75.60;;;;;;5041909;28;20025;-46
2023/05/18 04:30:28;;;;;;;5.47;2.35;;;8.50;75.20;;;;;;5016876;28;20030;-46
2023/05/18 04:32:57;;;;;;;5.80;2.03;;;8.50;75.40;;;;;;5049351;28;20025;-45
2023/05/18 04:35:25;;;;;;;6.70;2.65;;;8.50;75.80;;;;;;5047909;28;20060;-45
2023/05/18 04:37:53;;;;;;;6.20;2.00;;;8.60;75.80;;;;;;5044617;28;20029;-46
2023/05/18 04:40:20;;;;;;;5.28;2.50;;;8.70;75.60;;;;;;5042558;28;20025;-50
2023/05/18 04:42:48;;;;;;;6.10;1.77;;;8.80;75.60;;;;;;5045259;28;20029;-45
2023/05/18 04:45:16;;;;;;;7.32;1.80;;;8.80;74.80;;;;;;5044538;28;20056;-48
2023/05/18 04:47:45;;;;;;;4.50;1.90;;;8.90;74.40;;;;;;5027872;28;20033;-46
2023/05/18 04:50:16;;;;;;;4.97;1.70;;;8.90;73.30;;;;;;5029914;28;20159;-45
2023/05/18 04:52:47;;;;;;;4.15;1.90;;;8.90;73.60;;;;;;5048981;28;20025;-47
2023/05/18 04:55:24;;;;;;;6.80;1.75;;;9.00;73.20;;;;;;5035187;28;20584;-45
2023/05/18 04:57:55;;;;;;;6.88;1.80;;;9.00;72.40;;;;;;5052467;28;20073;-48
2023/05/18 05:00:27;;;;;;;7.03;1.85;;;9.20;72.40;;;;;;5046372;28;20366;-46
2023/05/18 05:02:56;;;;;;;5.03;1.70;;;9.20;71.70;;;;;;5035117;28;20043;-45
2023/05/18 05:05:25;;;;;;;4.57;2.00;;;9.20;71.60;;;;;;5052153;28;20122;-48
2023/05/18 05:07:53;;;;;;;7.47;1.90;;;9.30;70.90;;;;;;5052332;28;20040;-45
2023/05/18 05:10:23;;;;;;;5.80;2.13;;;9.30;70.90;;;;;;5052307;28;20082;-45
2023/05/18 05:12:52;;;;;;;10.75;2.83;;;9.40;71.10;;;;;;5039452;28;20036;-45
2023/05/18 05:15:19;;;;;;;7.38;1.77;;;9.40;70.50;;;;;;5022893;28;20518;-45
2023/05/18 05:17:51;;;;;;;7.93;1.95;;;9.40;67.60;;;;;;5044016;28;20057;-47
2023/05/18 05:20:18;;;;;;;10.57;2.35;;;9.40;66.80;;;;;;5013272;28;20084;-48
2023/05/18 05:22:45;;;;;;;4.15;1.50;;;9.50;66.70;;;;;;5025211;28;20029;-47
2023/05/18 05:25:12;;;;;;;5.13;1.95;;;9.50;68.40;;;;;;5047361;28;20053;-45
2023/05/18 05:27:39;;;;;;;3.80;1.65;;;9.60;67.60;;;;;;5027835;28;20446;-46
2023/05/18 05:30:07;;;;;;;5.15;1.50;;;9.60;67.10;;;;;;5032467;28;20446;-46
2023/05/18 05:32:41;;;;;;;11.35;2.50;;;9.70;68.20;;;;;;5048863;28;20036;-46
2023/05/18 05:35:09;;;;;;;7.20;2.30;;;9.90;68.40;;;;;;5051565;28;20036;-46
2023/05/18 05:37:37;;;;;;;9.15;1.95;;;9.90;65.70;;;;;;5053771;28;20029;-47
2023/05/18 05:40:06;;;;;;;4.57;1.75;;;10.00;65.80;;;;;;5047375;28;20156;-49
2023/05/18 05:42:34;;;;;;;9.70;3.00;;;10.20;66.30;;;;;;5035908;28;20089;-45
2023/05/18 05:45:02;;;;;;;6.47;2.33;;;10.20;65.40;;;;;;5035483;28;20171;-47
2023/05/18 05:47:29;;;;;;;6.55;1.80;;;10.20;66.50;;;;;;5030581;28;20082;-46
2023/05/18 05:49:55;;;;;;;7.45;2.28;;;10.20;65.50;;;;;;5052232;28;20504;-49
2023/05/18 05:52:21;;;;;;;7.10;2.15;;;10.30;66.10;;;;;;5055773;28;20096;-46
2023/05/18 05:54:48;;;;;;;7.05;2.03;;;10.40;65.50;;;;;;5054565;28;20033;-49
2023/05/18 05:57:15;;;;;;;6.55;1.90;;;10.40;64.70;;;;;;5054887;28;20033;-46
2023/05/18 05:59:43;;;;;;;5.40;2.10;;;10.50;64.90;;;;;;5053837;28;20037;-46
2023/05/18 06:02:08;;;;;;;8.73;2.88;;;10.70;65.20;;;;;;5043225;28;20036;-46
2023/05/18 06:04:37;;;;;;;5.90;1.77;;;10.80;63.30;;;;;;5054864;28;20029;-46
2023/05/18 06:07:06;;;;;;;6.20;1.45;;;10.70;61.30;;;;;;5052440;28;20147;-46
2023/05/18 06:09:33;;;;;;;7.68;2.25;;;10.80;62.10;;;;;;5026907;28;20107;-46
2023/05/18 06:11:59;;;;;;;4.55;1.75;;;10.90;61.30;;;;;;5053106;28;20033;-47
2023/05/18 06:14:25;;;;;;;9.68;2.28;;;10.90;61.20;;;;;;5048111;28;20040;-46
2023/05/18 06:16:53;;;;;;;8.52;2.28;;;11.00;62.50;;;;;;5021144;28;20578;-46
2023/05/18 06:19:19;;;;;;;7.63;1.40;;;11.00;61.50;;;;;;5042998;28;20028;-45
2023/05/18 06:21:47;;;;;;;5.68;1.55;;;11.10;61.80;;;;;;5051017;28;20373;-45
2023/05/18 06:24:15;;;;;;;5.82;1.55;;;11.20;61.60;;;;;;5049647;28;20072;-46
2023/05/18 06:26:41;;;;;;;6.38;2.13;;;11.40;60.40;;;;;;5037662;28;20082;-46
2023/05/18 06:29:08;;;;;;;4.97;1.88;;;11.60;61.00;;;;;;5034391;28;20029;-47
2023/05/18 06:31:35;;;;;;;5.05;1.48;;;11.80;61.30;;;;;;5045750;28;20056;-46
2023/05/18 06:34:02;;;;;;;5.55;1.75;;;11.90;60.20;;;;;;5037922;28;20577;-46
2023/05/18 06:36:30;;;;;;;9.80;2.05;;;12.20;59.00;;;;;;5027108;28;20443;-46
2023/05/18 06:38:57;;;;;;;5.85;1.40;;;12.40;60.40;;;;;;5052080;28;20036;-47
2023/05/18 06:41:24;;;;;;;5.28;1.95;;;12.40;58.80;;;;;;5047732;28;20024;-46
2023/05/18 06:43:51;;;;;;;3.88;1.60;;;12.50;59.30;;;;;;5049017;28;20043;-46
2023/05/18 06:46:21;;;;;;;5.43;1.88;;;12.50;60.30;;;;;;5049964;28;20029;-48
2023/05/18 06:48:48;;;;;;;5.45;1.73;;;12.50;59.30;;;;;;5028543;28;20072;-45
2023/05/18 06:51:15;;;;;;;6.07;2.38;;;12.50;59.60;;;;;;5032432;28;20343;-46
2023/05/18 06:53:46;;;;;;;9.25;2.75;;;12.40;59.50;;;;;;5036075;28;20094;-47
2023/05/18 06:56:13;;;;;;;11.70;2.63;;;12.70;60.00;;;;;;5045914;28;20602;-46
2023/05/18 06:58:45;;;;;;;6.90;1.63;;;12.80;59.70;;;;;;5045536;28;20442;-45
2023/05/18 07:01:13;;;;;;;9.98;2.50;;;12.90;58.10;;;;;;5047793;28;20032;-46
2023/05/18 07:03:40;;;;;;;5.40;1.85;;;13.00;56.80;;;;;;5033724;28;20374;-46
2023/05/18 07:06:07;;;;;;;8.95;1.92;;;13.20;57.00;;;;;;5036017;28;20037;-46
2023/05/18 07:08:35;;;;;;;6.65;1.55;;;13.20;57.40;;;;;;5054163;28;20434;-49
2023/05/18 07:11:04;;;;;;;8.32;2.10;;;13.50;57.30;;;;;;5031397;28;20506;-46
2023/05/18 07:13:32;;;;;;;6.50;1.92;;;13.60;58.20;;;;;;5036022;28;20565;-46
2023/05/18 07:15:59;;;;;;;6.82;1.92;;;13.50;55.20;;;;;;5042836;28;20033;-46
2023/05/18 07:18:31;;;;;;;5.35;1.77;;;13.60;56.00;;;;;;5033505;28;20488;-46
2023/05/18 07:20:58;;;;;;;7.90;1.80;;;13.70;57.30;;;;;;5052542;28;20118;-46
2023/05/18 07:23:25;;;;;;;4.90;1.40;;;13.80;56.00;;;;;;5050284;28;20040;-46
2023/05/18 07:25:56;;;;;;;7.65;1.85;;;13.90;58.10;;;;;;5031627;28;20458;-48
2023/05/18 07:28:23;;;;;;;6.82;1.60;;;13.90;55.80;;;;;;5031702;28;20059;-46
2023/05/18 07:30:50;;;;;;;5.07;1.63;;;14.10;54.10;;;;;;5027789;28;20066;-48
2023/05/18 07:33:21;;;;;;;6.60;1.83;;;14.30;53.90;;;;;;5049153;28;20017;-46
2023/05/18 07:35:47;;;;;;;4.85;1.35;;;14.30;53.20;;;;;;5049638;28;20087;-46
2023/05/18 07:38:20;;;;;;;3.88;1.50;;;14.20;54.20;;;;;;5049858;28;20469;-47
2023/05/18 07:40:46;;;;;;;6.00;1.48;;;14.30;54.30;;;;;;5047503;28;20511;-47
2023/05/18 07:43:14;;;;;;;6.18;1.63;;;14.50;53.60;;;;;;5043399;28;20075;-46
2023/05/18 07:45:44;;;;;;;3.80;1.50;;;14.80;51.90;;;;;;5049469;28;20041;-48
2023/05/18 07:48:11;;;;;;;;;;;14.90;54.00;;;;;;5049090;28;20021;-46
2023/05/18 07:50:38;;;;;;;6.55;2.03;;;14.90;51.00;;;;;;5052219;28;19971;-46
2023/05/18 07:53:07;;;;;;;3.55;1.20;;;14.90;52.40;;;;;;5044807;28;20029;-47
2023/05/18 07:55:34;;;;;;;5.60;1.27;;;15.20;52.60;;;;;;5047623;28;20350;-47
2023/05/18 07:58:03;;;;;;;4.85;1.10;;;15.40;51.70;;;;;;5046479;28;20059;-50
2023/05/18 08:00:35;;;;;;;6.63;1.40;;;15.50;49.40;;;;;;5044624;28;20033;-48
2023/05/18 08:03:05;;;;;;;7.45;2.03;;;16.00;48.60;;;;;;5047467;28;20090;-47
2023/05/18 08:05:33;;;;;;;6.43;1.70;;;16.00;49.10;;;;;;5044440;28;20119;-47
2023/05/18 08:08:01;;;;;;;4.53;1.75;;;16.10;48.20;;;;;;5027515;28;20407;-47
2023/05/18 08:10:29;;;;;;;7.00;1.58;;;16.60;48.70;;;;;;5043072;28;20044;-49
2023/05/18 08:12:56;;;;;;;4.65;1.38;;;17.00;47.30;;;;;;5048714;28;20048;-46
2023/05/18 08:15:23;;;;;;;4.00;1.55;;;17.10;47.10;;;;;;5044979;28;20421;-46
2023/05/18 08:17:51;;;;;;;5.82;1.15;;;17.30;46.40;;;;;;5031464;28;20021;-47
2023/05/18 08:20:18;;;;;;;6.30;1.50;;;17.50;45.40;;;;;;5044501;28;20107;-46
2023/05/18 08:22:45;;;;;;;6.20;1.73;;;17.40;46.90;;;;;;5042863;28;20037;-47
2023/05/18 08:25:12;;;;;;;5.28;1.33;;;17.40;45.70;;;;;;5046919;28;20041;-46
2023/05/18 08:27:41;;;;;;;4.78;1.30;;;17.30;45.40;;;;;;5049890;28;20355;-51
2023/05/18 08:30:09;;;;;;;5.50;1.67;;;17.40;46.20;;;;;;5046945;28;20018;-46
2023/05/18 08:32:36;;;;;;;5.75;1.50;;;17.60;46.30;;;;;;5047596;28;20028;-47
2023/05/18 08:35:08;;;;;;;5.45;1.02;;;17.20;47.50;;;;;;5031399;28;20029;-47
2023/05/18 08:37:38;;;;;;;4.38;1.50;;;17.50;47.10;;;;;;5049410;28;20442;-46
2023/05/18 08:40:06;;;;;;;;;;;17.50;45.40;;;;;;5047192;28;20094;-47
2023/05/18 08:42:51;;;;;;;5.45;1.35;;;17.20;43.60;;;;;;5051041;28;19920;-48
2023/05/18 08:45:51;;;;;;;6.38;1.67;;;17.20;46.60;;;;;;5043691;28;20462;-47
2023/05/18 08:48:21;;;;;;;3.75;1.60;;;17.60;45.70;;;;;;5049231;28;20439;-48
2023/05/18 08:50:51;;;;;;;4.70;1.45;;;18.00;45.30;;;;;;5016724;28;20474;-47
2023/05/18 08:53:21;;;;;;;5.30;1.40;;;18.90;45.60;;;;;;5052218;28;20512;-51
2023/05/18 08:55:50;;;;;;;6.55;1.58;;;18.90;45.60;;;;;;5036177;28;20025;-51
2023/05/18 08:58:19;;;;;;;5.37;1.90;;;18.50;45.20;;;;;;5015137;28;20051;-47
2023/05/18 09:00:51;;;;;;;5.20;2.15;;;18.80;43.80;;;;;;5028493;28;20033;-47
2023/05/18 09:03:17;;;;;;;5.25;1.50;;;19.10;42.80;;;;;;5037719;28;20037;-46
2023/05/18 09:05:45;;;;;;;6.90;1.70;;;18.80;44.50;;;;;;5055402;28;20036;-46
2023/05/18 09:08:13;;;;;;;6.45;1.70;;;18.20;45.10;;;;;;5055239;28;20063;-46
2023/05/18 09:10:41;;;;;;;5.72;1.27;;;17.80;43.90;;;;;;5032130;28;20104;-49
2023/05/18 09:13:10;;;;;;;5.97;1.85;;;17.60;45.50;;;;;;5016341;28;20098;-47
2023/05/18 09:15:37;;;;;;;7.72;2.05;;;17.60;44.90;;;;;;5048006;28;20028;-46
2023/05/18 09:18:08;;;;;;;6.78;1.63;;;17.90;46.50;;;;;;5037555;28;20033;-47
2023/05/18 09:20:37;;;;;;;4.78;1.25;;;17.80;46.10;;;;;;5054897;28;20458;-49
2023/05/18 09:23:10;;;;;;;4.22;1.50;;;17.90;46.10;;;;;;5037789;28;20099;-47
2023/05/18 09:25:45;;;;;;;7.95;1.52;;;17.90;48.00;;;;;;5050136;28;20051;-48
2023/05/18 09:28:54;;;;;;;6.18;1.95;;;17.90;44.50;;;;;;5022944;28;20052;-47
2023/05/18 09:31:23;;;;;;;6.13;2.03;;;18.40;45.20;;;;;;5049020;28;20039;-46
2023/05/18 09:33:52;;;;;;;6.15;1.70;;;18.50;43.00;;;;;;5038597;28;20025;-51
2023/05/18 09:36:25;;;;;;;3.97;1.70;;;18.40;43.60;;;;;;5052858;28;20056;-46
2023/05/18 09:38:52;;;;;;;5.85;1.48;;;18.40;46.20;;;;;;5038074;28;20060;-46
2023/05/18 09:41:19;;;;;;;7.10;1.67;;;18.00;46.90;;;;;;5052252;28;20853;-46
2023/05/18 09:43:51;;;;;;;7.15;2.22;;;17.90;45.20;;;;;;5048803;28;20178;-48
2023/05/18 09:46:19;;;;;;;4.90;1.17;;;18.20;46.70;;;;;;5055425;28;20086;-49
2023/05/18 09:48:51;;;;;;;7.80;2.00;;;18.10;46.80;;;;;;5036670;28;20060;-46
2023/05/18 09:51:18;;;;;;;5.65;2.15;;;17.90;44.60;;;;;;5020832;28;20029;-47
2023/05/18 09:54:09;;;;;;;6.00;1.70;;;18.20;42.30;;;;;;5034774;28;20048;-47
2023/05/18 09:56:45;;;;;;;8.30;1.92;;;18.20;44.90;;;;;;5054424;28;20028;-48
2023/05/18 09:59:15;;;;;;;4.55;1.77;;;18.30;45.90;;;;;;5054675;28;20029;-48
2023/05/18 10:02:01;;;;;;;6.45;1.85;;;17.90;46.50;;;;;;5030779;28;20045;-47
2023/05/18 10:04:43;;;;;;;5.82;1.55;;;18.10;43.30;;;;;;5042128;28;20041;-47
2023/05/18 10:07:14;;;;;;;8.73;1.95;;;17.80;44.00;;;;;;5054090;28;20032;-48
2023/05/18 10:10:00;;;;;;;4.90;1.77;;;17.60;46.40;;;;;;5027349;28;20020;-47
2023/05/18 10:12:28;;;;;;;5.35;1.60;;;17.70;47.00;;;;;;5025116;28;20467;-47
2023/05/18 10:14:55;;;;;;;5.80;1.90;;;17.90;47.50;;;;;;5045279;28;20120;-47
2023/05/18 10:17:27;;;;;;;4.10;1.20;;;17.70;48.10;;;;;;5044338;28;20032;-47
2023/05/18 10:19:56;;;;;;;7.35;2.03;;;17.40;47.10;;;;;;5050657;28;20056;-48
2023/05/18 10:22:24;;;;;;;5.68;1.60;;;17.40;47.40;;;;;;5037365;28;20041;-48
2023/05/18 10:25:02;;;;;;;4.13;1.52;;;17.60;47.90;;;;;;5050562;28;20028;-47
2023/05/18 10:27:28;;;;;;;5.35;1.98;;;17.70;46.30;;;;;;5043433;28;20398;-46
2023/05/18 10:30:02;;;;;;;6.85;2.03;;;17.70;44.40;;;;;;5012212;28;20188;-50
2023/05/18 10:32:31;;;;;;;5.38;1.70;;;17.60;47.10;;;;;;5053859;28;20366;-46
2023/05/18 10:34:59;;;;;;;4.17;1.30;;;17.30;47.80;;;;;;5053188;28;20076;-48
2023/05/18 10:37:31;;;;;;;7.65;2.10;;;17.20;50.00;;;;;;5048081;28;20927;-47
2023/05/18 10:40:00;;;;;;;7.20;1.85;;;17.40;47.70;;;;;;5050134;28;20103;-47
2023/05/18 10:42:29;;;;;;;7.68;1.98;;;17.40;49.60;;;;;;5000441;28;20119;-47
2023/05/18 10:44:56;;;;;;;9.02;2.15;;;17.30;49.60;;;;;;5031391;28;20477;-48
2023/05/18 10:47:27;;;;;;;7.40;1.80;;;17.10;48.00;;;;;;4995840;28;20126;-46
2023/05/18 10:49:56;;;;;;;6.30;1.77;;;17.00;46.90;;;;;;5017676;28;20021;-46
2023/05/18 10:52:30;;;;;;;;;;;16.90;48.70;;;;;;5016789;28;20112;-49
2023/05/18 10:55:03;;;;;;;7.47;2.22;;;17.10;47.60;;;;;;5047933;28;19923;-49
2023/05/18 10:57:37;;;;;;;6.03;1.75;;;17.10;48.00;;;;;;5031178;28;20420;-48
2023/05/18 11:00:11;;;;;;;5.78;1.83;;;17.20;49.60;;;;;;5016408;28;20038;-48
2023/05/18 11:02:41;;;;;;;10.77;1.92;;;17.00;48.50;;;;;;5029198;28;20040;-50
2023/05/18 11:05:12;;;;;;;4.78;1.40;;;17.30;47.50;;;;;;5035278;28;20115;-46
2023/05/18 11:07:38;;;;;;;4.07;1.35;;;17.00;48.20;;;;;;5043494;28;20104;-49
2023/05/18 11:10:09;;;;;;;6.22;1.80;;;16.70;50.00;;;;;;5035025;28;20477;-47
2023/05/18 11:12:39;;;;;;;5.88;1.88;;;16.90;50.70;;;;;;5029235;28;20033;-47
2023/05/18 11:15:11;;;;;;;9.77;2.33;;;16.80;49.80;;;;;;5034461;28;20029;-48
2023/05/18 11:17:37;;;;;;;4.03;1.30;;;16.90;50.50;;;;;;5050359;28;20091;-50
2023/05/18 11:20:14;;;;;;;6.30;1.60;;;17.00;49.50;;;;;;5044918;28;20470;-46
2023/05/18 11:22:52;;;;;;;8.98;2.08;;;16.80;48.50;;;;;;5046854;28;21018;-46
2023/05/18 11:25:27;;;;;;;3.97;1.75;;;16.70;51.40;;;;;;5047303;28;20024;-47
2023/05/18 11:28:00;;;;;;;5.68;1.33;;;16.50;51.30;;;;;;5032148;28;20328;-47
2023/05/18 11:30:47;;;;;;;4.90;1.60;;;16.50;49.30;;;;;;5038763;28;20033;-49
2023/05/18 11:33:30;;;;;;;6.03;1.42;;;16.50;47.60;;;;;;5053209;28;20025;-49
2023/05/18 11:36:10;;;;;;;5.53;1.92;;;16.30;49.30;;;;;;5037241;28;20064;-47
2023/05/18 11:38:54;;;;;;;4.72;1.30;;;16.30;53.00;;;;;;5036713;28;20108;-46
2023/05/18 11:41:38;;;;;;;4.65;1.52;;;16.30;50.20;;;;;;5047541;28;20033;-47
2023/05/18 11:44:13;;;;;;;5.70;1.83;;;15.90;50.80;;;;;;5047909;28;20037;-47
2023/05/18 11:47:00;;;;;;;2.92;1.13;;;16.00;50.10;;;;;;5044271;28;20025;-46
2023/05/18 11:49:32;;;;;;;5.15;1.70;;;15.90;50.10;;;;;;5046845;28;20032;-47
2023/05/18 11:52:15;;;;;;;6.93;1.70;;;15.70;52.90;;;;;;5035295;28;20035;-46
2023/05/18 11:55:03;;;;;;;7.68;2.22;;;15.40;52.70;;;;;;5051396;28;20036;-47
2023/05/18 11:57:42;;;;;;;10.75;2.55;;;15.50;56.80;;;;;;5046896;28;20064;-48
2023/05/18 12:00:12;;;;;;;5.13;1.67;;;15.40;54.30;;;;;;5048288;28;20112;-46
2023/05/18 12:02:46;;;;;;;9.57;2.05;;;15.60;52.90;;;;;;5013897;28;20068;-46
2023/05/18 12:05:16;;;;;;;7.55;1.63;;;15.70;51.40;;;;;;5032297;28;20067;-50
2023/05/18 12:07:43;;;;;;;7.72;2.17;;;15.60;55.00;;;;;;5024528;28;20072;-46
2023/05/18 12:10:13;;;;;;;4.55;1.20;;;15.50;53.60;;;;;;5048263;28;20029;-48
2023/05/18 12:12:41;;;;;;;5.45;1.67;;;15.40;54.30;;;;;;5042825;28;20010;-47
2023/05/18 12:15:10;;;;;;;5.05;1.50;;;15.30;56.00;;;;;;5027727;28;20552;-48
2023/05/18 12:17:51;;;;;;;9.70;2.80;;;15.40;55.30;;;;;;5051170;28;20094;-46
2023/05/18 12:20:27;;;;;;;7.75;2.15;;;15.10;55.80;;;;;;5047244;28;20041;-47
2023/05/18 12:22:55;;;;;;;9.05;1.77;;;15.00;55.60;;;;;;5052303;28;20032;-50
2023/05/18 12:25:28;;;;;;;7.28;1.52;;;14.90;58.10;;;;;;5027492;28;20485;-46
2023/05/18 12:27:58;;;;;;;5.75;1.92;;;15.00;57.90;;;;;;5042812;28;20474;-46
2023/05/18 12:30:33;;;;;;;5.55;1.73;;;15.00;58.00;;;;;;5048065;28;20052;-46
2023/05/18 12:33:04;;;;;;;6.78;1.83;;;14.90;57.70;;;;;;5043472;28;20025;-46
2023/05/18 12:35:32;;;;;;;6.07;1.25;;;14.90;56.50;;;;;;5045448;28;20540;-46
2023/05/18 12:38:00;;;;;;;8.93;1.48;;;15.00;58.40;;;;;;5032278;28;20047;-48
2023/05/18 12:40:47;;;;;;;5.78;1.75;;;14.90;59.70;;;;;;5049612;28;20028;-49
2023/05/18 12:43:25;;;;;;;7.03;2.15;;;14.90;57.20;;;;;;5051305;28;20095;-49
2023/05/18 12:45:54;;;;;;;8.90;2.22;;;14.80;57.90;;;;;;5034096;28;20087;-46
2023/05/18 12:48:25;;;;;;;6.20;1.90;;;14.70;58.10;;;;;;5046663;28;20037;-48
2023/05/18 12:50:52;;;;;;;8.60;1.75;;;14.40;56.20;;;;;;5045267;28;20033;-46
2023/05/18 12:53:18;;;;;;;6.75;1.92;;;14.40;58.90;;;;;;5045726;28;20100;-45
2023/05/18 12:55:56;;;;;;;7.50;2.15;;;14.40;58.10;;;;;;5046966;28;20439;-46
2023/05/18 12:58:23;;;;;;;8.70;1.80;;;14.40;59.90;;;;;;5034184;28;20029;-47
2023/05/18 13:00:51;;;;;;;7.78;2.17;;;14.30;58.20;;;;;;5049385;28;20374;-47
2023/05/18 13:03:23;;;;;;;7.60;1.85;;;14.30;56.80;;;;;;5050095;28;20024;-46
2023/05/18 13:06:12;;;;;;;7.15;1.73;;;14.40;58.20;;;;;;5037573;28;20727;-50
2023/05/18 13:08:39;;;;;;;5.30;1.40;;;14.30;58.90;;;;;;5050486;28;20033;-46